Time;durP1;ratioP1;P1;durP2;ratioP2;P2;SDS_P1;SDS_P2;PMS_P1;PMS_P2;Temp;Humidity;BMP_temperature;BMP_pressure;BME280_temperature;BME280_humidity;BME280_pressure;Samples;Min_cycle;Max_cycle;Signal;HPM_P1;HPM_P2
2023/11/30 00:01:13;;;;;;;36.67;24.38;;;2.20;99.90;;;;;;5093921;28;20471;-71
2023/11/30 00:03:38;;;;;;;34.95;23.60;;;2.20;99.90;;;;;;5082750;28;20461;-74
2023/11/30 00:06:04;;;;;;;33.37;24.10;;;2.20;99.90;;;;;;5084826;28;20454;-75
2023/11/30 00:08:30;;;;;;;32.63;24.20;;;2.20;99.90;;;;;;5076111;28;20435;-74
2023/11/30 00:10:55;;;;;;;35.58;25.10;;;2.20;99.90;;;;;;5073055;28;20372;-73
2023/11/30 00:13:21;;;;;;;37.20;23.35;;;2.20;99.90;;;;;;5073145;28;20924;-73
2023/11/30 00:15:46;;;;;;;36.70;25.05;;;2.10;99.90;;;;;;5072795;28;20386;-74
2023/11/30 00:18:12;;;;;;;37.45;23.73;;;2.20;99.90;;;;;;5073186;28;20395;-74
2023/11/30 00:20:37;;;;;;;32.47;23.33;;;2.20;99.90;;;;;;5071592;28;20376;-74
2023/11/30 00:23:03;;;;;;;33.53;23.27;;;2.20;99.90;;;;;;5073030;28;20534;-73
2023/11/30 00:25:28;;;;;;;33.10;23.87;;;2.20;99.90;;;;;;5072787;28;20390;-74
2023/11/30 00:27:54;;;;;;;32.37;23.50;;;2.20;99.90;;;;;;5072833;28;20383;-74
2023/11/30 00:30:20;;;;;;;31.67;23.10;;;2.20;99.90;;;;;;5071119;28;20962;-73
2023/11/30 00:32:45;;;;;;;34.30;23.08;;;2.20;99.90;;;;;;5072478;28;20384;-72
2023/11/30 00:35:11;;;;;;;31.80;22.55;;;2.20;99.90;;;;;;5072664;28;20391;-74
2023/11/30 00:37:36;;;;;;;34.83;23.40;;;2.10;99.90;;;;;;5073332;28;20485;-72
2023/11/30 00:40:03;;;;;;;32.70;23.17;;;2.20;99.90;;;;;;5072639;28;20395;-72
2023/11/30 00:42:29;;;;;;;37.88;24.00;;;2.30;99.90;;;;;;5072508;28;20384;-74
2023/11/30 00:44:55;;;;;;;36.13;23.27;;;2.20;99.90;;;;;;5072556;28;20754;-73
2023/11/30 00:47:20;;;;;;;34.70;24.13;;;2.20;99.90;;;;;;5072801;28;20391;-73
2023/11/30 00:49:46;;;;;;;32.37;21.97;;;2.20;99.90;;;;;;5072535;28;20418;-75
2023/11/30 00:52:11;;;;;;;34.20;21.97;;;2.40;99.90;;;;;;5076291;28;20400;-74
2023/11/30 00:54:37;;;;;;;30.30;22.60;;;2.40;99.90;;;;;;5075348;28;20884;-74
2023/11/30 00:57:03;;;;;;;31.63;22.67;;;2.40;99.90;;;;;;5073937;28;20384;-73
2023/11/30 00:59:29;;;;;;;31.45;23.02;;;2.30;99.90;;;;;;5072349;28;20408;-74
2023/11/30 01:01:54;;;;;;;34.50;24.20;;;2.30;99.90;;;;;;5072070;28;20800;-74
2023/11/30 01:04:20;;;;;;;31.58;23.25;;;2.30;99.90;;;;;;5070944;28;20372;-74
2023/11/30 01:06:45;;;;;;;32.85;23.08;;;2.30;99.90;;;;;;5072547;28;20384;-74
2023/11/30 01:09:11;;;;;;;33.05;23.38;;;2.40;99.90;;;;;;5073025;28;20379;-73
2023/11/30 01:11:43;;;;;;;30.63;22.45;;;2.40;99.90;;;;;;5071813;28;20390;-74
2023/11/30 01:14:09;;;;;;;32.70;24.25;;;2.40;99.90;;;;;;5071817;28;20420;-74
2023/11/30 01:16:35;;;;;;;32.35;22.25;;;2.40;99.90;;;;;;5071857;28;20453;-74
2023/11/30 01:19:00;;;;;;;33.50;23.33;;;2.50;99.90;;;;;;5069890;28;20403;-73
2023/11/30 01:21:26;;;;;;;34.22;23.02;;;2.40;99.90;;;;;;5071667;28;20414;-74
2023/11/30 01:23:51;;;;;;;37.20;24.05;;;2.30;99.90;;;;;;5071563;28;20380;-75
2023/11/30 01:26:17;;;;;;;36.00;24.10;;;2.40;99.90;;;;;;5071905;28;20437;-73
2023/11/30 01:28:43;;;;;;;36.33;24.90;;;2.40;99.90;;;;;;5071852;28;20383;-73
2023/11/30 01:31:09;;;;;;;34.97;24.58;;;2.40;99.90;;;;;;5072189;28;20960;-73
2023/11/30 01:33:36;;;;;;;35.33;24.70;;;2.40;99.90;;;;;;5071619;28;20388;-74
2023/11/30 01:36:03;;;;;;;33.65;25.20;;;2.30;99.90;;;;;;5071997;28;20420;-73
2023/11/30 01:38:29;;;;;;;38.28;25.52;;;2.20;99.90;;;;;;5071252;28;20898;-73
2023/11/30 01:40:55;;;;;;;35.90;24.80;;;2.30;99.90;;;;;;5070155;28;20395;-73
2023/11/30 01:43:21;;;;;;;35.23;24.80;;;2.30;99.90;;;;;;5071909;28;20386;-73
2023/11/30 01:45:49;;;;;;;36.40;24.00;;;2.30;99.90;;;;;;5071462;28;20425;-73
2023/11/30 01:48:16;;;;;;;36.27;24.53;;;2.30;99.90;;;;;;5071386;28;20380;-73
2023/11/30 01:50:43;;;;;;;33.67;24.60;;;2.20;99.90;;;;;;5071204;28;20417;-74
2023/11/30 01:53:09;;;;;;;39.38;25.50;;;2.20;99.90;;;;;;5071752;28;20877;-74
2023/11/30 01:55:35;;;;;;;33.17;24.30;;;2.40;99.90;;;;;;5071575;28;20388;-74
2023/11/30 01:58:02;;;;;;;36.55;25.00;;;2.30;99.90;;;;;;5071305;28;20403;-74
2023/11/30 02:00:30;;;;;;;38.10;25.98;;;2.20;99.90;;;;;;5071184;28;20391;-74
2023/11/30 02:02:57;;;;;;;36.95;26.25;;;2.20;99.90;;;;;;5070773;28;20838;-74
2023/11/30 02:05:23;;;;;;;39.35;27.23;;;2.20;99.90;;;;;;5070994;28;20380;-73
2023/11/30 02:07:48;;;;;;;37.10;25.73;;;2.20;99.90;;;;;;5071226;28;20429;-73
2023/11/30 02:10:14;;;;;;;34.67;24.47;;;2.30;99.90;;;;;;5071311;28;20376;-74
2023/11/30 02:12:39;;;;;;;39.60;27.20;;;2.30;99.90;;;;;;5074614;28;20406;-74
2023/11/30 02:15:05;;;;;;;36.47;25.90;;;2.20;99.90;;;;;;5077036;28;20430;-73
2023/11/30 02:17:31;;;;;;;39.15;26.98;;;2.30;99.90;;;;;;5073945;28;20467;-73
2023/11/30 02:19:56;;;;;;;39.47;26.40;;;2.30;99.90;;;;;;5072487;28;20451;-74
2023/11/30 02:22:22;;;;;;;42.47;28.90;;;2.20;99.90;;;;;;5071116;28;20454;-74
2023/11/30 02:24:48;;;;;;;44.00;27.57;;;2.30;99.90;;;;;;5070763;28;20387;-74
2023/11/30 02:27:13;;;;;;;39.73;27.03;;;2.20;99.90;;;;;;5070820;28;20391;-73
2023/11/30 02:29:39;;;;;;;42.20;27.80;;;2.20;99.90;;;;;;5070727;28;20388;-72
2023/11/30 02:32:04;;;;;;;39.92;28.67;;;2.20;99.90;;;;;;5070292;28;20478;-74
2023/11/30 02:34:30;;;;;;;38.05;25.92;;;2.20;99.90;;;;;;5070758;28;20802;-73
2023/11/30 02:36:55;;;;;;;38.67;26.92;;;2.30;99.90;;;;;;5070597;28;20390;-73
2023/11/30 02:39:21;;;;;;;40.75;27.50;;;2.30;99.90;;;;;;5070403;28;20497;-73
2023/11/30 02:41:46;;;;;;;40.10;26.90;;;2.40;99.90;;;;;;5071913;28;20754;-73
2023/11/30 02:44:12;;;;;;;39.23;27.30;;;2.40;99.90;;;;;;5070116;28;20375;-73
2023/11/30 02:46:37;;;;;;;39.13;27.40;;;2.40;99.90;;;;;;5070508;28;20466;-74
2023/11/30 02:49:03;;;;;;;40.77;27.37;;;2.30;99.90;;;;;;5070594;28;20427;-73
2023/11/30 02:51:28;;;;;;;39.40;27.97;;;2.30;99.90;;;;;;5070713;28;20415;-73
2023/11/30 02:53:54;;;;;;;45.30;28.73;;;2.30;99.90;;;;;;5070785;28;20395;-73
2023/11/30 02:56:20;;;;;;;42.80;28.47;;;2.40;99.90;;;;;;5071004;28;20387;-74
2023/11/30 02:58:45;;;;;;;37.10;25.13;;;2.50;99.60;;;;;;5070599;28;20406;-73
2023/11/30 03:01:11;;;;;;;40.85;27.60;;;2.70;97.30;;;;;;5070803;28;20453;-73
2023/11/30 03:03:36;;;;;;;37.30;25.33;;;2.60;97.00;;;;;;5069589;28;20387;-74
2023/11/30 03:06:02;;;;;;;37.60;26.33;;;2.60;98.50;;;;;;5071037;28;20934;-74
2023/11/30 03:08:27;;;;;;;43.58;27.50;;;2.50;98.70;;;;;;5069258;28;20476;-73
2023/11/30 03:10:53;;;;;;;38.05;26.63;;;2.50;99.20;;;;;;5070123;28;20754;-73
2023/11/30 03:13:18;;;;;;;38.03;26.57;;;2.50;99.50;;;;;;5069097;28;20777;-72
2023/11/30 03:15:46;;;;;;;36.40;24.50;;;2.50;98.70;;;;;;5070599;28;20383;-75
2023/11/30 03:18:12;;;;;;;39.40;25.88;;;2.50;99.00;;;;;;5070365;28;20898;-73
2023/11/30 03:20:37;;;;;;;36.50;24.80;;;2.60;97.80;;;;;;5070307;28;20396;-74
2023/11/30 03:23:03;;;;;;;39.03;25.70;;;2.50;98.00;;;;;;5070374;28;20396;-75
2023/11/30 03:25:30;;;;;;;35.17;24.20;;;2.60;98.90;;;;;;5070193;28;20379;-73
2023/11/30 03:27:55;;;;;;;38.42;24.38;;;2.70;98.60;;;;;;5071901;28;20379;-75
2023/11/30 03:30:21;;;;;;;39.10;25.27;;;2.80;96.40;;;;;;5073620;28;20402;-72
2023/11/30 03:32:46;;;;;;;34.40;24.30;;;2.90;92.10;;;;;;5074206;28;20466;-74
2023/11/30 03:35:12;;;;;;;33.20;23.33;;;2.90;91.80;;;;;;5073876;28;20474;-72
2023/11/30 03:37:40;;;;;;;32.87;23.27;;;3.00;91.80;;;;;;5074258;28;20387;-75
2023/11/30 03:40:06;;;;;;;33.70;22.55;;;3.00;90.80;;;;;;5074344;28;20482;-74
2023/11/30 03:42:32;;;;;;;32.00;22.15;;;3.10;86.00;;;;;;5073206;28;20441;-74
2023/11/30 03:44:58;;;;;;;33.70;22.60;;;3.10;86.00;;;;;;5073428;28;20380;-73
2023/11/30 03:47:23;;;;;;;49.50;33.80;;;3.10;84.60;;;;;;5073472;28;20459;-73
2023/11/30 03:49:49;;;;;;;34.97;24.53;;;3.00;85.50;;;;;;5073218;28;20383;-73
2023/11/30 03:52:14;;;;;;;38.90;24.13;;;3.00;86.20;;;;;;5072904;28;20457;-73
2023/11/30 03:54:40;;;;;;;36.35;24.08;;;2.80;87.30;;;;;;5073325;28;20387;-74
2023/11/30 03:57:05;;;;;;;35.28;24.05;;;2.70;89.90;;;;;;5073255;28;20395;-73
2023/11/30 03:59:31;;;;;;;35.75;24.77;;;2.80;92.20;;;;;;5073132;28;20404;-73
2023/11/30 04:01:57;;;;;;;40.13;23.98;;;2.90;91.10;;;;;;5073021;28;20388;-74
2023/11/30 04:04:22;;;;;;;34.73;23.00;;;3.00;86.40;;;;;;5073207;28;20372;-74
2023/11/30 04:06:48;;;;;;;38.00;24.40;;;2.90;87.70;;;;;;5073793;28;20750;-75
2023/11/30 04:09:14;;;;;;;37.13;24.50;;;2.90;86.70;;;;;;5073740;28;20484;-75
2023/11/30 04:11:39;;;;;;;35.50;23.48;;;3.00;88.00;;;;;;5073176;28;20384;-74
2023/11/30 04:14:06;;;;;;;36.30;23.13;;;3.20;84.20;;;;;;5072848;28;20392;-74
2023/11/30 04:16:33;;;;;;;39.08;23.90;;;3.10;85.70;;;;;;5072905;28;20415;-73
2023/11/30 04:18:58;;;;;;;37.03;22.83;;;3.10;84.50;;;;;;5073913;28;20482;-73
2023/11/30 04:21:24;;;;;;;33.67;22.53;;;3.30;83.70;;;;;;5074550;28;20419;-74
2023/11/30 04:23:49;;;;;;;36.58;23.35;;;3.20;82.10;;;;;;5074455;28;20379;-73
2023/11/30 04:26:15;;;;;;;36.75;22.33;;;3.20;85.10;;;;;;5072981;28;20383;-73
2023/11/30 04:28:41;;;;;;;36.50;22.85;;;3.10;83.20;;;;;;5072735;28;20379;-73
2023/11/30 04:31:07;;;;;;;37.00;23.10;;;3.10;83.40;;;;;;5072783;28;20495;-73
2023/11/30 04:33:32;;;;;;;35.88;23.20;;;3.10;83.70;;;;;;5072756;28;20376;-73
2023/11/30 04:35:58;;;;;;;34.50;23.10;;;3.00;82.50;;;;;;5072864;28;20750;-74
2023/11/30 04:38:24;;;;;;;36.80;24.33;;;2.90;84.90;;;;;;5075855;28;20514;-74
2023/11/30 04:40:49;;;;;;;35.63;22.43;;;2.90;85.70;;;;;;5087436;28;20384;-73
2023/11/30 04:43:15;;;;;;;36.20;24.07;;;2.90;87.20;;;;;;5083827;28;20462;-74
2023/11/30 04:45:40;;;;;;;41.23;24.03;;;2.80;86.50;;;;;;5082584;28;20386;-73
2023/11/30 04:48:06;;;;;;;37.07;23.30;;;2.80;87.90;;;;;;5086967;28;20391;-74
2023/11/30 04:50:31;;;;;;;35.10;22.50;;;2.80;88.30;;;;;;5086165;28;20863;-75
2023/11/30 04:52:57;;;;;;;36.20;22.93;;;2.80;89.20;;;;;;5086248;28;20396;-73
2023/11/30 04:55:22;;;;;;;37.38;22.10;;;2.80;88.40;;;;;;5086728;28;20410;-74
2023/11/30 04:57:48;;;;;;;33.30;21.42;;;2.90;86.50;;;;;;5086757;28;20395;-73
2023/11/30 05:00:14;;;;;;;35.80;23.40;;;2.90;86.40;;;;;;5086801;28;20388;-74
2023/11/30 05:02:51;;;;;;;40.17;23.88;;;2.90;86.00;;;;;;5086527;28;20711;-74
2023/11/30 05:05:18;;;;;;;40.75;24.45;;;2.80;88.10;;;;;;5087902;28;20380;-73
2023/11/30 05:07:43;;;;;;;36.83;22.77;;;2.80;87.10;;;;;;5087117;28;20422;-74
2023/11/30 05:10:09;;;;;;;38.15;24.42;;;2.70;88.30;;;;;;5086400;28;20375;-74
2023/11/30 05:12:34;;;;;;;39.40;25.40;;;2.60;88.90;;;;;;5088406;28;20388;-74
2023/11/30 05:15:00;;;;;;;38.87;24.50;;;2.60;89.50;;;;;;5090586;28;20379;-73
2023/11/30 05:17:25;;;;;;;37.53;24.33;;;2.60;90.30;;;;;;5079981;28;20466;-74
2023/11/30 05:19:51;;;;;;;40.90;25.60;;;2.60;90.90;;;;;;5073544;28;20751;-74
2023/11/30 05:22:16;;;;;;;40.67;25.37;;;2.60;91.10;;;;;;5073010;28;20785;-73
2023/11/30 05:24:42;;;;;;;40.33;25.07;;;2.80;89.10;;;;;;5072885;28;20844;-74
2023/11/30 05:27:07;;;;;;;42.13;26.23;;;2.70;90.00;;;;;;5072394;28;20463;-73
2023/11/30 05:29:33;;;;;;;39.67;24.80;;;2.60;91.30;;;;;;5076744;28;20384;-74
2023/11/30 05:31:59;;;;;;;39.03;24.20;;;2.60;92.20;;;;;;5078079;28;20486;-73
2023/11/30 05:34:24;;;;;;;38.88;24.17;;;2.80;89.10;;;;;;5076889;28;20394;-74
2023/11/30 05:36:50;;;;;;;41.60;25.25;;;2.80;89.00;;;;;;5074938;28;20395;-73
2023/11/30 05:39:15;;;;;;;42.42;25.42;;;2.70;89.80;;;;;;5074190;28;20746;-74
2023/11/30 05:41:41;;;;;;;44.88;27.77;;;2.80;89.30;;;;;;5074234;28;20380;-73
2023/11/30 05:44:07;;;;;;;45.97;25.20;;;2.70;90.80;;;;;;5078999;28;20463;-74
2023/11/30 05:46:32;;;;;;;43.57;26.47;;;2.70;90.90;;;;;;5078475;28;20437;-73
2023/11/30 05:48:58;;;;;;;41.57;25.83;;;2.80;90.40;;;;;;5078979;28;20392;-75
2023/11/30 05:51:23;;;;;;;41.67;24.23;;;3.00;85.80;;;;;;5082385;28;20409;-73
2023/11/30 05:53:49;;;;;;;41.22;24.30;;;2.80;87.00;;;;;;5099738;22;20558;-71
2023/11/30 05:56:15;;;;;;;41.95;26.10;;;2.70;89.00;;;;;;5090790;28;20378;-72
2023/11/30 05:58:40;;;;;;;43.13;26.43;;;2.60;89.20;;;;;;5090795;28;20412;-72
2023/11/30 06:01:06;;;;;;;44.83;27.03;;;2.70;89.20;;;;;;5090588;28;20378;-72
2023/11/30 06:03:31;;;;;;;44.40;27.73;;;2.70;89.20;;;;;;5090757;28;20386;-72
2023/11/30 06:05:57;;;;;;;47.67;28.77;;;2.60;89.90;;;;;;5090689;28;20396;-73
2023/11/30 06:08:27;;;;;;;49.95;29.88;;;2.60;91.50;;;;;;5090569;28;20469;-72
2023/11/30 06:10:52;;;;;;;47.88;28.48;;;2.50;93.30;;;;;;5090489;28;20469;-72
2023/11/30 06:13:18;;;;;;;43.58;27.08;;;2.50;93.90;;;;;;5090865;28;20465;-71
2023/11/30 06:15:44;;;;;;;46.43;26.30;;;2.60;91.50;;;;;;5090855;28;20417;-72
2023/11/30 06:18:10;;;;;;;43.03;26.65;;;2.60;92.30;;;;;;5092449;28;20402;-72
2023/11/30 06:20:35;;;;;;;45.58;29.50;;;2.50;93.30;;;;;;5091131;28;20378;-72
2023/11/30 06:23:01;;;;;;;45.33;27.67;;;2.50;95.00;;;;;;5091066;28;20378;-72
2023/11/30 06:25:26;;;;;;;45.33;27.07;;;2.40;96.00;;;;;;5091225;28;20377;-70
2023/11/30 06:27:52;;;;;;;45.17;28.00;;;2.40;96.50;;;;;;5093768;28;20413;-72
2023/11/30 06:30:17;;;;;;;61.03;30.00;;;2.40;97.00;;;;;;5094962;28;20413;-71
2023/11/30 06:32:43;;;;;;;52.97;29.58;;;2.60;96.50;;;;;;5092499;28;20431;-71
2023/11/30 06:35:09;;;;;;;48.47;28.67;;;2.50;95.80;;;;;;5095250;28;20384;-71
2023/11/30 06:37:34;;;;;;;45.80;27.77;;;2.60;95.70;;;;;;5091017;28;20382;-71
2023/11/30 06:40:00;;;;;;;44.03;27.50;;;2.60;94.50;;;;;;5090285;28;20404;-70
2023/11/30 06:42:25;;;;;;;45.70;26.40;;;2.50;95.90;;;;;;5090255;28;20378;-72
2023/11/30 06:44:51;;;;;;;43.67;26.97;;;2.50;94.40;;;;;;5090109;28;20439;-70
2023/11/30 06:47:16;;;;;;;43.10;26.17;;;2.50;94.30;;;;;;5090027;28;20378;-71
2023/11/30 06:49:42;;;;;;;43.13;25.83;;;2.60;93.60;;;;;;5090895;28;20424;-70
2023/11/30 06:52:08;;;;;;;38.70;24.77;;;2.60;92.90;;;;;;5092782;28;20456;-71
2023/11/30 06:54:33;;;;;;;39.28;25.42;;;2.70;91.00;;;;;;5092095;28;20394;-72
2023/11/30 06:56:59;;;;;;;36.65;24.13;;;2.70;89.10;;;;;;5093198;28;20748;-70
2023/11/30 06:59:24;;;;;;;38.80;25.35;;;2.80;88.50;;;;;;5091149;28;20398;-71
2023/11/30 07:01:50;;;;;;;38.17;23.00;;;2.80;88.40;;;;;;5093377;28;20388;-71
2023/11/30 07:04:17;;;;;;;162.50;105.17;;;2.80;87.80;;;;;;5094174;28;20497;-72
2023/11/30 07:06:42;;;;;;;93.88;56.05;;;3.00;99.90;;;;;;5094110;28;20381;-71
2023/11/30 07:09:12;;;;;;;153.35;86.40;;;3.20;97.90;;;;;;5093979;28;20407;-71
2023/11/30 07:11:38;;;;;;;229.20;132.10;;;3.40;99.90;;;;;;5093566;28;20386;-71
2023/11/30 07:14:03;;;;;;;90.20;53.80;;;3.80;99.90;;;;;;5093926;28;20389;-71
2023/11/30 07:16:29;;;;;;;40.37;25.30;;;3.70;89.70;;;;;;5093784;28;20386;-70
2023/11/30 07:18:55;;;;;;;40.83;24.83;;;3.50;84.70;;;;;;5093917;28;20437;-72
2023/11/30 07:21:20;;;;;;;39.97;25.05;;;3.30;90.60;;;;;;5093905;28;20378;-71
2023/11/30 07:23:46;;;;;;;38.10;25.08;;;3.20;80.50;;;;;;5093844;28;20739;-72
2023/11/30 07:26:14;;;;;;;40.85;25.08;;;3.10;86.40;;;;;;5093123;28;21042;-71
2023/11/30 07:28:41;;;;;;;36.63;23.10;;;3.00;88.00;;;;;;5086785;28;20943;-71
2023/11/30 07:31:06;;;;;;;39.92;24.65;;;3.00;90.60;;;;;;5081616;28;20401;-72
2023/11/30 07:33:35;;;;;;;40.73;25.07;;;3.00;90.00;;;;;;5093435;28;20871;-72
2023/11/30 07:36:01;;;;;;;37.75;24.95;;;2.90;89.00;;;;;;5092576;28;20586;-71
2023/11/30 07:38:26;;;;;;;35.90;23.30;;;3.00;87.80;;;;;;5093356;28;20492;-72
2023/11/30 07:40:52;;;;;;;39.63;24.50;;;2.90;88.10;;;;;;5093384;28;20385;-72
2023/11/30 07:43:18;;;;;;;37.20;23.45;;;2.80;89.10;;;;;;5093057;28;20373;-72
2023/11/30 07:45:44;;;;;;;36.35;22.35;;;2.90;88.40;;;;;;5088681;28;20390;-72
2023/11/30 07:48:09;;;;;;;38.58;24.55;;;2.90;90.20;;;;;;5093159;28;20440;-72
2023/11/30 07:50:35;;;;;;;40.00;24.27;;;3.00;87.50;;;;;;5091583;28;20876;-75
2023/11/30 07:53:04;;;;;;;36.10;22.37;;;3.10;88.10;;;;;;5092404;28;20432;-73
2023/11/30 07:55:29;;;;;;;40.60;26.97;;;3.10;87.60;;;;;;5093674;28;20418;-74
2023/11/30 07:57:55;;;;;;;36.15;23.77;;;3.20;89.00;;;;;;5089955;28;20465;-72
2023/11/30 08:03:06;;;;;;;35.10;22.80;;;3.20;85.50;;;;;;5072581;28;20383;-72
2023/11/30 08:05:33;;;;;;;35.80;22.83;;;3.20;85.10;;;;;;5073191;28;20425;-72
2023/11/30 08:07:58;;;;;;;38.00;22.47;;;3.30;86.30;;;;;;5054778;28;20414;-73
2023/11/30 08:10:25;;;;;;;37.43;22.70;;;3.30;83.20;;;;;;5078560;28;20943;-72
2023/11/30 08:12:51;;;;;;;34.50;21.80;;;3.30;83.70;;;;;;5092607;28;20385;-73
2023/11/30 08:15:16;;;;;;;36.00;22.40;;;3.30;84.10;;;;;;5093346;28;20381;-73
2023/11/30 08:17:42;;;;;;;35.73;22.87;;;3.40;84.40;;;;;;5093543;28;20381;-73
2023/11/30 08:20:13;;;;;;;35.93;22.80;;;3.30;83.90;;;;;;5093068;28;20431;-73
2023/11/30 08:22:39;;;;;;;32.47;21.67;;;3.30;84.00;;;;;;5094316;28;20394;-73
2023/11/30 08:25:05;;;;;;;36.80;23.08;;;3.30;83.80;;;;;;5094126;28;20385;-73
2023/11/30 08:27:35;;;;;;;34.78;22.40;;;3.40;83.00;;;;;;5094686;28;20393;-73
2023/11/30 08:30:01;;;;;;;32.72;20.90;;;3.40;83.10;;;;;;5094105;28;20425;-73
2023/11/30 08:32:27;;;;;;;31.57;20.77;;;3.40;82.80;;;;;;5094323;28;20479;-73
2023/11/30 08:34:52;;;;;;;33.13;21.13;;;3.40;79.50;;;;;;5092824;28;20386;-73
2023/11/30 08:37:18;;;;;;;33.10;21.23;;;3.40;81.30;;;;;;5092467;28;20404;-73
2023/11/30 08:39:45;;;;;;;30.92;20.15;;;3.30;82.10;;;;;;5092091;28;20398;-73
2023/11/30 08:42:11;;;;;;;31.30;20.60;;;3.40;83.40;;;;;;5087323;28;20840;-73
2023/11/30 08:44:37;;;;;;;34.22;20.92;;;3.50;81.50;;;;;;5093483;28;20423;-73
2023/11/30 08:47:02;;;;;;;30.75;20.60;;;3.30;81.30;;;;;;5091441;28;20971;-73
2023/11/30 08:49:28;;;;;;;34.13;20.95;;;3.20;83.20;;;;;;5092033;28;20412;-72
2023/11/30 08:51:53;;;;;;;35.93;22.07;;;3.10;84.70;;;;;;5091606;28;20400;-73
2023/11/30 08:54:21;;;;;;;34.30;20.70;;;3.00;86.00;;;;;;5091922;28;20398;-73
2023/11/30 08:56:47;;;;;;;36.40;21.45;;;3.00;86.40;;;;;;5091643;28;20397;-73
2023/11/30 08:59:12;;;;;;;33.60;21.25;;;3.00;86.00;;;;;;5092979;28;20417;-73
2023/11/30 09:01:38;;;;;;;30.67;20.33;;;3.00;86.50;;;;;;5091971;28;20389;-76
2023/11/30 09:04:05;;;;;;;29.40;19.88;;;3.10;86.80;;;;;;5092085;28;20382;-75
2023/11/30 09:06:32;;;;;;;31.02;19.50;;;3.40;83.00;;;;;;5088823;28;20744;-72
2023/11/30 09:09:01;;;;;;;35.15;20.88;;;3.40;81.10;;;;;;5074669;28;20390;-74
2023/11/30 09:11:29;;;;;;;30.73;20.35;;;3.40;81.40;;;;;;5091714;28;20396;-73
2023/11/30 09:13:55;;;;;;;33.15;19.88;;;3.40;83.00;;;;;;5090208;28;21040;-71
2023/11/30 09:16:21;;;;;;;33.20;20.83;;;3.40;81.80;;;;;;5091881;28;20394;-71
2023/11/30 09:18:47;;;;;;;32.65;21.20;;;3.70;82.50;;;;;;5092852;28;20451;-72
2023/11/30 09:21:12;;;;;;;31.63;20.08;;;3.80;77.90;;;;;;5077635;28;20882;-71
2023/11/30 09:23:38;;;;;;;31.38;20.98;;;3.90;78.00;;;;;;5072493;28;20465;-72
2023/11/30 09:26:07;;;;;;;30.65;19.33;;;3.90;76.30;;;;;;5070799;28;20392;-73
2023/11/30 09:28:37;;;;;;;28.55;19.00;;;3.90;76.40;;;;;;5071946;28;20851;-73
2023/11/30 09:31:05;;;;;;;28.53;18.73;;;4.00;78.40;;;;;;5071666;28;20388;-72
2023/11/30 09:33:31;;;;;;;30.95;20.15;;;4.00;73.80;;;;;;5087676;28;20386;-72
2023/11/30 09:35:57;;;;;;;25.80;17.43;;;4.00;74.10;;;;;;5089126;28;21113;-72
2023/11/30 09:38:23;;;;;;;32.03;19.88;;;4.00;73.00;;;;;;5070527;28;20410;-74
2023/11/30 09:40:50;;;;;;;28.63;17.08;;;3.90;74.30;;;;;;5072691;28;20380;-73
2023/11/30 09:43:16;;;;;;;29.13;17.58;;;4.00;73.30;;;;;;5071816;28;20533;-72
2023/11/30 09:45:46;;;;;;;26.67;17.63;;;3.90;71.90;;;;;;5071726;28;20383;-72
2023/11/30 09:48:12;;;;;;;28.50;16.88;;;3.80;74.30;;;;;;5088012;28;20397;-73
2023/11/30 09:50:38;;;;;;;26.65;16.73;;;3.70;75.00;;;;;;5089547;28;20475;-72
2023/11/30 09:53:04;;;;;;;25.33;15.95;;;3.70;76.70;;;;;;5091028;28;20443;-72
2023/11/30 09:55:30;;;;;;;23.83;15.30;;;3.80;76.40;;;;;;5090890;28;20397;-73
2023/11/30 09:57:56;;;;;;;26.10;16.67;;;3.90;73.70;;;;;;5090764;28;20390;-74
2023/11/30 10:00:22;;;;;;;25.00;15.97;;;3.90;74.20;;;;;;5090875;28;20380;-72
2023/11/30 10:02:53;;;;;;;25.37;15.60;;;4.10;74.50;;;;;;5090866;28;20864;-72
2023/11/30 10:05:18;;;;;;;24.77;16.60;;;4.30;70.40;;;;;;5091047;28;20705;-72
2023/11/30 10:07:44;;;;;;;27.37;17.23;;;4.60;63.90;;;;;;5090752;28;20382;-73
2023/11/30 10:10:10;;;;;;;29.40;18.17;;;4.70;61.60;;;;;;5082355;28;20745;-72
2023/11/30 10:12:35;;;;;;;24.83;16.30;;;4.60;64.70;;;;;;5089166;28;20796;-72
2023/11/30 10:15:01;;;;;;;25.43;15.90;;;4.40;65.90;;;;;;5090472;28;20385;-72
2023/11/30 10:17:30;;;;;;;25.20;16.42;;;4.50;68.10;;;;;;5090741;28;20873;-73
2023/11/30 10:19:55;;;;;;;22.08;15.07;;;4.50;68.50;;;;;;5091192;28;20543;-73
2023/11/30 10:22:22;;;;;;;25.27;15.65;;;4.60;66.00;;;;;;5090517;28;20745;-73
2023/11/30 10:24:49;;;;;;;23.35;15.50;;;4.60;66.60;;;;;;5091034;28;20410;-73
2023/11/30 10:27:19;;;;;;;23.55;15.68;;;4.70;64.90;;;;;;5090660;28;20436;-73
2023/11/30 10:29:47;;;;;;;29.70;16.63;;;4.90;65.60;;;;;;5090789;28;20386;-72
2023/11/30 10:32:13;;;;;;;21.03;13.77;;;5.00;62.30;;;;;;5090148;28;20447;-71
2023/11/30 10:34:58;;;;;;;22.25;14.32;;;5.00;61.70;;;;;;5090562;28;20394;-72
2023/11/30 10:37:29;;;;;;;22.88;13.77;;;5.30;62.00;;;;;;5089402;28;20394;-73
2023/11/30 10:40:08;;;;;;;24.10;14.55;;;5.30;59.70;;;;;;5091755;28;20397;-72
2023/11/30 10:42:34;;;;;;;21.20;12.90;;;5.50;56.00;;;;;;5091385;28;20378;-72
2023/11/30 10:45:06;;;;;;;20.00;13.25;;;5.60;55.00;;;;;;5082023;28;20400;-73
2023/11/30 10:47:32;;;;;;;19.40;10.95;;;5.90;54.60;;;;;;5070094;28;20403;-72
2023/11/30 10:49:59;;;;;;;15.80;11.00;;;6.20;50.70;;;;;;5069824;28;20842;-73
2023/11/30 10:52:28;;;;;;;15.20;10.25;;;6.10;49.70;;;;;;5070062;28;20458;-73
2023/11/30 10:55:12;;;;;;;18.17;10.50;;;6.00;48.90;;;;;;5071910;28;20472;-73
2023/11/30 10:57:44;;;;;;;20.13;13.10;;;5.70;50.40;;;;;;5070697;28;20415;-75
2023/11/30 11:00:14;;;;;;;18.58;12.00;;;5.90;50.70;;;;;;5086115;28;20420;-73
2023/11/30 11:02:45;;;;;;;21.17;13.70;;;5.80;50.90;;;;;;5083332;28;20915;-73
2023/11/30 11:05:15;;;;;;;18.80;11.65;;;5.90;52.30;;;;;;5089667;28;20761;-71
2023/11/30 11:07:48;;;;;;;19.30;11.75;;;5.90;49.30;;;;;;5076834;28;20494;-73
2023/11/30 11:10:26;;;;;;;20.58;13.55;;;5.70;50.20;;;;;;5081294;28;20506;-73
2023/11/30 11:12:52;;;;;;;21.00;13.18;;;5.70;51.20;;;;;;5086609;28;20413;-72
2023/11/30 11:15:20;;;;;;;19.55;12.90;;;5.70;50.40;;;;;;5083985;28;20389;-72
2023/11/30 11:17:48;;;;;;;19.55;11.93;;;5.70;49.90;;;;;;5071425;28;20438;-73
2023/11/30 11:20:23;;;;;;;18.17;11.95;;;5.70;49.50;;;;;;5076069;28;20891;-72
2023/11/30 11:23:13;;;;;;;19.10;12.10;;;5.60;49.20;;;;;;5086632;28;20423;-73
2023/11/30 11:25:38;;;;;;;20.60;12.93;;;5.60;49.80;;;;;;5077358;28;20917;-73
2023/11/30 11:28:05;;;;;;;20.23;12.18;;;5.60;49.30;;;;;;5072961;28;20414;-72
2023/11/30 11:30:31;;;;;;;24.67;14.20;;;5.60;49.80;;;;;;5083656;28;20485;-72
2023/11/30 11:32:58;;;;;;;19.90;12.68;;;5.60;49.10;;;;;;5089336;28;20386;-72
2023/11/30 11:35:26;;;;;;;13.40;9.60;;;5.80;48.80;;;;;;5089647;28;20402;-72
2023/11/30 11:37:55;;;;;;;17.03;10.00;;;5.70;46.20;;;;;;5088905;28;20442;-70
2023/11/30 11:40:21;;;;;;;21.85;12.40;;;5.80;47.80;;;;;;5089502;28;20378;-71
2023/11/30 11:42:47;;;;;;;15.77;9.37;;;5.90;47.10;;;;;;5089343;28;20367;-71
2023/11/30 11:45:14;;;;;;;16.08;9.63;;;6.40;44.40;;;;;;5071148;28;20755;-71
2023/11/30 11:47:40;;;;;;;13.98;8.70;;;6.30;44.60;;;;;;5068592;28;20418;-73
2023/11/30 11:50:06;;;;;;;18.45;10.27;;;6.30;44.10;;;;;;5073462;28;20470;-73
2023/11/30 11:55:09;;;;;;;13.10;8.30;;;6.30;43.20;;;;;;5091200;28;20426;-74
2023/11/30 11:57:37;;;;;;;14.35;8.98;;;6.20;42.80;;;;;;5094174;28;20465;-74
2023/11/30 12:00:04;;;;;;;15.65;8.90;;;6.20;43.70;;;;;;5092324;28;20410;-75
2023/11/30 12:02:32;;;;;;;16.80;9.38;;;6.20;43.70;;;;;;5074703;28;20491;-74
2023/11/30 12:05:08;;;;;;;19.73;10.60;;;6.30;44.40;;;;;;5095176;28;20473;-75
2023/11/30 12:07:34;;;;;;;18.95;10.65;;;6.50;44.30;;;;;;5098022;28;20385;-73
2023/11/30 12:10:00;;;;;;;19.97;10.23;;;6.70;43.30;;;;;;5093789;28;20382;-75
2023/11/30 12:12:33;;;;;;;20.05;10.30;;;6.70;43.00;;;;;;5093050;28;20377;-75
2023/11/30 12:14:59;;;;;;;17.08;10.10;;;7.00;43.20;;;;;;5092697;28;20392;-75
2023/11/30 12:17:24;;;;;;;16.43;10.10;;;7.10;41.50;;;;;;5092358;28;20378;-76
2023/11/30 12:19:50;;;;;;;19.07;9.80;;;7.00;39.80;;;;;;5093150;28;20405;-75
2023/11/30 12:22:16;;;;;;;15.57;9.30;;;7.50;38.40;;;;;;5093355;28;20378;-75
2023/11/30 12:24:41;;;;;;;15.88;9.15;;;8.40;34.90;;;;;;5093330;28;20689;-74
2023/11/30 12:27:07;;;;;;;18.43;9.53;;;8.70;34.10;;;;;;5093568;28;20868;-74
2023/11/30 12:29:32;;;;;;;17.07;9.90;;;8.50;33.90;;;;;;5093012;28;20374;-75
2023/11/30 12:31:58;;;;;;;17.50;9.50;;;8.00;35.10;;;;;;5095501;28;20393;-75
2023/11/30 12:34:23;;;;;;;16.40;9.70;;;7.90;36.00;;;;;;5098612;28;20420;-75
2023/11/30 12:36:49;;;;;;;16.13;9.80;;;8.10;36.00;;;;;;5095504;28;20430;-74
2023/11/30 12:39:16;;;;;;;14.87;9.47;;;8.00;36.80;;;;;;5093942;28;20427;-74